Time;durP1;ratioP1;P1;durP2;ratioP2;P2;SDS_P1;SDS_P2;PMS_P1;PMS_P2;Temp;Humidity;BMP_temperature;BMP_pressure;BME280_temperature;BME280_humidity;BME280_pressure;Samples;Min_cycle;Max_cycle;Signal;HPM_P1;HPM_P2
2022/08/11 00:01:14;;;;;;;10.77;4.28;;;;;;;19.14;46.38;99895.09;5074376;28;20046;-55
2022/08/11 00:03:45;;;;;;;9.38;4.35;;;;;;;19.17;46.41;99902.72;5071180;28;20124;-56
2022/08/11 00:06:12;;;;;;;8.15;4.22;;;;;;;19.30;46.05;99892.31;5078153;28;20029;-56
2022/08/11 00:08:38;;;;;;;10.90;4.18;;;;;;;19.13;46.38;99887.25;5068552;28;20095;-56
2022/08/11 00:11:06;;;;;;;8.70;3.80;;;;;;;19.13;46.13;99893.50;5074647;28;20521;-57
2022/08/11 00:13:35;;;;;;;10.20;4.43;;;;;;;19.01;46.74;99887.59;5072443;28;20032;-56
2022/08/11 00:16:02;;;;;;;6.47;4.10;;;;;;;19.05;47.37;99890.59;5076502;28;20053;-56
2022/08/11 00:18:29;;;;;;;7.28;4.65;;;;;;;19.10;46.40;99883.22;5074089;28;20081;-56
2022/08/11 00:20:57;;;;;;;9.98;4.20;;;;;;;19.14;46.74;99881.53;5072057;28;20020;-56
2022/08/11 00:23:23;;;;;;;12.57;4.10;;;;;;;19.09;46.38;99887.00;5077474;28;20040;-57
2022/08/11 00:25:50;;;;;;;14.88;4.15;;;;;;;18.89;47.04;99887.94;5078694;28;20035;-57
2022/08/11 00:28:23;;;;;;;12.75;4.47;;;;;;;18.64;48.09;99886.16;5072198;28;20029;-57
2022/08/11 00:30:49;;;;;;;9.50;3.80;;;;;;;18.61;48.77;99884.00;5071768;28;20486;-58
2022/08/11 00:33:15;;;;;;;6.68;4.43;;;;;;;18.56;48.30;99886.75;5074021;28;20066;-57
2022/08/11 00:35:41;;;;;;;9.57;4.40;;;;;;;18.69;48.55;99894.28;5079773;28;20029;-57
2022/08/11 00:38:06;;;;;;;8.00;4.57;;;;;;;18.45;49.38;99893.34;5083602;28;20082;-57
2022/08/11 00:40:44;;;;;;;6.28;4.20;;;;;;;18.04;50.59;99888.03;5077001;28;20025;-57
2022/08/11 00:43:21;;;;;;;8.38;4.30;;;;;;;18.13;50.34;99880.16;5080271;28;20074;-57
2022/08/11 00:46:17;;;;;;;10.40;4.40;;;;;;;18.29;48.69;99885.25;5059028;28;20387;-57
2022/08/11 00:49:10;;;;;;;9.73;4.43;;;;;;;18.31;48.79;99888.50;5073915;28;20035;-57
2022/08/11 00:51:52;;;;;;;10.70;4.28;;;;;;;18.25;50.33;99895.03;5075493;28;20474;-57
2022/08/11 00:54:26;;;;;;;9.90;4.40;;;;;;;18.21;50.55;99888.53;5074050;28;20032;-57
2022/08/11 00:57:20;;;;;;;6.95;4.10;;;;;;;18.02;50.14;99895.63;5080311;28;20103;-57
2022/08/11 01:00:01;;;;;;;7.63;4.70;;;;;;;17.97;50.14;99898.38;5083134;28;20429;-57
2022/08/11 01:03:05;;;;;;;11.93;4.40;;;;;;;18.05;50.04;99895.09;5075098;28;20032;-58
2022/08/11 01:05:37;;;;;;;7.50;4.57;;;;;;;18.16;49.65;99890.47;5073509;28;20411;-57
2022/08/11 01:08:43;;;;;;;10.93;4.80;;;;;;;18.04;50.38;99893.47;5073986;28;20028;-57
2022/08/11 01:11:20;;;;;;;11.88;4.50;;;;;;;18.05;50.57;99900.53;5075806;28;20165;-57
2022/08/11 01:13:48;;;;;;;8.50;4.13;;;;;;;17.95;50.92;99889.72;5077217;28;20094;-57
2022/08/11 01:16:35;;;;;;;6.20;4.38;;;;;;;17.89;51.31;99889.69;5079835;28;20490;-57
2022/08/11 01:19:03;;;;;;;8.00;4.55;;;;;;;17.79;51.36;99886.97;5074427;28;20078;-57
2022/08/11 01:21:48;;;;;;;11.02;4.53;;;;;;;18.15;50.51;99889.66;5079357;28;20090;-58
2022/08/11 01:24:32;;;;;;;14.40;4.40;;;;;;;17.75;51.61;99890.53;5074597;28;20036;-57
2022/08/11 01:27:03;;;;;;;6.03;4.18;;;;;;;17.69;52.92;99900.56;5078218;28;20031;-57
2022/08/11 01:29:31;;;;;;;8.05;4.30;;;;;;;17.58;52.76;99896.25;5080061;28;20039;-57
2022/08/11 01:32:10;;;;;;;7.90;4.53;;;;;;;17.34;54.45;99894.06;5075384;28;20024;-57
2022/08/11 01:34:49;;;;;;;8.07;4.63;;;;;;;17.48;52.00;99893.53;5077775;28;20150;-57
2022/08/11 01:37:37;;;;;;;10.03;4.77;;;;;;;17.63;52.06;99893.53;5073910;28;20032;-57
2022/08/11 01:40:39;;;;;;;8.05;4.30;;;;;;;17.63;52.52;99898.94;5076935;28;20277;-57
2022/08/11 01:50:27;;;;;;;8.10;4.80;;;;;;;17.44;52.77;99902.19;5049857;28;20493;-57
2022/08/11 01:53:15;;;;;;;10.88;4.70;;;;;;;17.62;51.79;99900.00;5073979;28;20024;-57
2022/08/11 01:55:59;;;;;;;13.02;4.90;;;;;;;17.69;51.48;99898.66;5077518;28;20028;-58
2022/08/11 01:58:56;;;;;;;12.98;4.55;;;;;;;17.44;52.70;99913.03;5073785;28;20115;-57
2022/08/11 02:01:59;;;;;;;6.40;4.47;;;;;;;17.60;51.80;99910.34;5078689;28;20036;-57
2022/08/11 02:04:49;;;;;;;6.78;4.65;;;;;;;17.43;52.67;99911.41;5076733;28;20059;-57
2022/08/11 02:08:05;;;;;;;9.38;4.30;;;;;;;17.37;53.07;99915.22;5074248;28;20037;-57
2022/08/11 02:13:37;;;;;;;8.55;4.38;;;;;;;17.13;54.32;99919.53;5081297;28;20055;-57
2022/08/11 02:16:15;;;;;;;7.68;4.40;;;;;;;17.00;53.99;99912.75;5074400;28;20036;-57
2022/08/11 02:24:16;;;;;;;13.50;4.53;;;;;;;17.07;54.45;99918.69;5060829;28;20085;-57
2022/08/11 02:27:19;;;;;;;6.53;4.47;;;;;;;16.81;56.62;99910.53;5074032;28;20108;-57
2022/08/11 02:30:03;;;;;;;11.02;4.65;;;;;;;16.55;56.82;99912.31;5076349;28;20029;-57
2022/08/11 02:35:22;;;;;;;11.40;4.55;;;;;;;16.73;55.60;99911.03;5058837;28;20117;-58
2022/08/11 02:37:53;;;;;;;10.73;4.50;;;;;;;16.96;54.81;99907.03;5062829;28;20107;-58
2022/08/11 02:40:35;;;;;;;10.82;4.60;;;;;;;17.12;54.63;99907.06;5078158;28;20118;-57
2022/08/11 02:43:09;;;;;;;15.52;4.75;;;;;;;17.03;54.26;99907.59;5081645;28;20032;-58
2022/08/11 02:45:59;;;;;;;8.68;4.60;;;;;;;17.27;54.20;99909.78;5076016;28;20027;-58
2022/08/11 02:51:43;;;;;;;8.32;4.35;;;;;;;17.01;55.96;99903.53;5082956;28;20081;-58
2022/08/11 02:54:33;;;;;;;11.32;4.63;;;;;;;16.80;56.13;99908.91;5066485;28;20111;-58
2022/08/11 02:57:03;;;;;;;6.93;4.38;;;;;;;16.64;57.62;99911.81;5074449;28;20368;-57
2022/08/11 02:59:50;;;;;;;9.07;4.85;;;;;;;16.33;58.67;99909.78;5073112;28;20028;-58
2022/08/11 03:02:30;;;;;;;11.13;4.75;;;;;;;16.18;59.30;99904.31;5072860;28;20041;-58
2022/08/11 03:05:02;;;;;;;8.32;4.57;;;;;;;16.18;59.78;99899.72;5077787;28;20046;-58
2022/08/11 03:07:54;;;;;;;10.25;4.38;;;;;;;16.17;58.86;99903.50;5073551;28;20040;-57
2022/08/11 03:10:28;;;;;;;8.25;4.60;;;;;;;16.17;58.51;99908.06;5081540;28;20107;-58
2022/08/11 03:16:47;;;;;;;10.98;4.85;;;;;;;16.18;58.30;99902.41;5072742;28;20407;-58
2022/08/11 03:19:29;;;;;;;7.65;4.32;;;;;;;16.48;57.91;99911.75;5075970;28;20032;-58
2022/08/11 03:22:13;;;;;;;13.20;5.10;;;;;;;16.47;57.28;99907.41;5075058;28;20028;-58
2022/08/11 03:25:00;;;;;;;10.93;4.55;;;;;;;16.40;57.11;99904.16;5078328;28;20509;-58
2022/08/11 03:27:35;;;;;;;12.05;4.20;;;;;;;16.15;57.92;99908.34;5071952;28;20059;-57
2022/08/11 03:30:46;;;;;;;13.18;4.50;;;;;;;16.45;56.75;99906.88;5079646;28;20030;-57
2022/08/11 03:36:28;;;;;;;5.78;4.30;;;;;;;16.77;56.82;99905.88;5057550;28;19912;-57
2022/08/11 03:39:02;;;;;;;11.05;4.95;;;;;;;16.68;56.13;99907.50;5073399;28;20033;-57
2022/08/11 03:41:44;;;;;;;6.57;4.80;;;;;;;16.20;57.95;99910.28;5076266;28;20033;-57
2022/08/11 03:44:24;;;;;;;7.35;4.65;;;;;;;16.11;59.85;99915.34;5072286;28;20081;-57
2022/08/11 03:47:11;;;;;;;8.15;4.65;;;;;;;15.96;59.63;99909.88;5072403;28;20025;-57
2022/08/11 03:50:03;;;;;;;10.35;4.70;;;;;;;16.01;59.04;99912.59;5078782;28;20032;-57
2022/08/11 03:52:50;;;;;;;11.25;4.70;;;;;;;15.93;59.51;99911.19;5070910;28;20395;-57
2022/08/11 03:55:24;;;;;;;8.95;4.80;;;;;;;15.66;60.44;99913.97;5072053;28;20024;-57
2022/08/11 03:58:11;;;;;;;7.43;4.55;;;;;;;15.84;59.36;99914.66;5073499;28;20577;-58
2022/08/11 04:01:13;;;;;;;8.80;4.40;;;;;;;15.69;60.24;99910.75;5080524;28;20056;-55
2022/08/11 04:04:00;;;;;;;8.15;4.97;;;;;;;15.84;60.31;99907.34;5071497;28;20037;-58
2022/08/11 04:06:46;;;;;;;11.52;4.53;;;;;;;15.79;59.81;99909.22;5072006;28;20036;-58
2022/08/11 04:09:22;;;;;;;11.45;4.65;;;;;;;16.02;59.77;99908.81;5077298;28;20154;-57
2022/08/11 04:12:18;;;;;;;8.60;4.13;;;;;;;16.24;59.32;99903.25;5076659;28;20028;-56
2022/08/11 04:17:47;;;;;;;6.18;4.53;;;;;;;16.20;58.03;99904.88;5079835;28;20039;-56
2022/08/11 04:20:28;;;;;;;6.60;4.57;;;;;;;16.11;58.40;99909.94;5076423;28;20399;-57
2022/08/11 04:23:31;;;;;;;10.80;4.40;;;;;;;15.98;59.58;99906.91;5076443;28;20105;-59
2022/08/11 04:26:21;;;;;;;10.30;4.80;;;;;;;16.06;58.95;99903.72;5072135;28;20663;-57
2022/08/11 04:29:17;;;;;;;9.75;4.70;;;;;;;16.89;57.67;99905.66;5080527;28;20101;-57
2022/08/11 04:32:10;;;;;;;8.75;4.45;;;;;;;17.51;54.64;99901.13;5082686;28;20042;-57
2022/08/11 04:34:36;;;;;;;7.53;4.80;;;;;;;18.38;52.81;99909.91;5076468;28;20378;-57
2022/08/11 04:37:33;;;;;;;9.68;4.60;;;;;;;18.64;52.14;99915.22;5073524;28;20107;-57
2022/08/11 04:40:36;;;;;;;6.18;4.40;;;;;;;18.80;50.64;99911.38;5078537;28;20589;-58
2022/08/11 04:43:22;;;;;;;11.63;4.63;;;;;;;19.92;47.88;99920.59;5076627;28;20024;-57
2022/08/11 04:46:05;;;;;;;13.68;5.45;;;;;;;20.65;46.22;99921.41;5071931;28;20055;-58
2022/08/11 05:04:05;;;;;;;13.23;4.63;;;;;;;22.30;43.06;99940.31;5068643;28;20085;-58
2022/08/11 05:06:55;;;;;;;11.38;4.25;;;;;;;23.40;40.75;99936.56;5083350;28;20025;-58
2022/08/11 05:09:40;;;;;;;11.30;4.53;;;;;;;23.75;39.94;99939.56;5072078;28;20055;-58
2022/08/11 05:12:32;;;;;;;9.57;4.25;;;;;;;24.32;38.73;99936.94;5078345;28;20028;-58
2022/08/11 05:34:52;;;;;;;14.50;5.10;;;;;;;26.05;36.93;99948.31;5062613;28;20496;-57
2022/08/11 05:37:27;;;;;;;23.40;5.93;;;;;;;26.60;35.65;99949.38;5064660;28;20056;-57
2022/08/11 05:56:49;;;;;;;48.58;8.60;;;;;;;27.48;34.28;99953.09;5077186;28;20035;-57
2022/08/11 05:59:16;;;;;;;19.85;5.72;;;;;;;27.94;34.30;99965.00;5071267;28;20028;-57
2022/08/11 06:01:42;;;;;;;19.17;6.03;;;;;;;27.64;35.20;99962.34;5072520;28;20492;-57
2022/08/11 06:04:13;;;;;;;22.77;5.88;;;;;;;27.74;34.31;99961.91;5076928;28;20042;-57
2022/08/11 06:07:00;;;;;;;13.65;5.00;;;;;;;28.39;33.01;99967.69;5083968;28;20028;-57
2022/08/11 06:09:25;;;;;;;10.98;4.95;;;;;;;28.71;32.51;99969.88;5079668;28;20111;-57
2022/08/11 06:11:50;;;;;;;15.27;5.25;;;;;;;28.39;32.75;99972.38;5075901;28;20112;-57
2022/08/11 06:14:16;;;;;;;17.55;5.32;;;;;;;29.22;31.28;99970.25;5061310;28;20029;-57
2022/08/11 06:16:41;;;;;;;44.05;7.05;;;;;;;29.51;30.08;99974.66;5064281;28;20027;-58
2022/08/11 06:19:08;;;;;;;39.25;7.68;;;;;;;29.52;30.48;99976.25;5077964;28;20021;-57
2022/08/11 06:21:34;;;;;;;50.65;7.70;;;;;;;29.83;30.20;99974.72;5073743;28;20029;-57
2022/08/11 06:24:02;;;;;;;51.10;7.90;;;;;;;30.26;29.93;99979.44;5083306;28;20032;-57
2022/08/11 06:26:28;;;;;;;62.47;8.83;;;;;;;30.56;28.86;99970.69;5081021;28;20070;-57
2022/08/11 06:28:55;;;;;;;45.08;7.57;;;;;;;30.34;29.05;99979.63;5058584;28;20458;-58
2022/08/11 06:31:24;;;;;;;57.88;7.78;;;;;;;30.04;28.84;99980.03;5071887;28;20028;-58
2022/08/11 06:33:49;;;;;;;42.20;7.10;;;;;;;30.19;28.94;99976.47;5083168;28;20060;-58
2022/08/11 06:36:27;;;;;;;57.85;7.60;;;;;;;30.15;29.25;99980.28;5083731;28;20055;-57
2022/08/11 06:38:58;;;;;;;42.63;7.03;;;;;;;30.55;29.11;99976.56;5078854;28;20123;-57
2022/08/11 06:41:29;;;;;;;35.80;6.53;;;;;;;31.26;27.60;99974.63;5099344;28;20082;-57
2022/08/11 06:44:12;;;;;;;24.85;7.03;;;;;;;31.01;28.00;99976.84;5076661;28;20089;-58
2022/08/11 06:46:42;;;;;;;54.67;7.53;;;;;;;30.86;28.21;99984.03;5083182;28;20032;-58
2022/08/11 06:52:13;;;;;;;51.60;7.00;;;;;;;31.47;27.32;99982.56;5075018;28;20088;-58
2022/08/11 06:54:43;;;;;;;38.72;7.38;;;;;;;31.69;27.67;99984.59;5074822;28;20048;-59
2022/08/11 07:02:55;;;;;;;41.30;7.25;;;;;;;32.56;26.53;99978.63;5075028;28;20406;-58
2022/08/11 07:05:20;;;;;;;71.63;8.15;;;;;;;32.74;26.81;99982.44;5082867;28;20174;-58
2022/08/11 07:16:19;;;;;;;66.70;8.45;;;;;;;32.17;27.19;99968.44;5064791;28;20052;-57
2022/08/11 07:29:51;;;;;;;47.65;7.72;;;;;;;31.86;27.67;99963.13;5058450;28;20035;-56
2022/08/11 07:32:23;;;;;;;49.13;7.85;;;;;;;31.67;28.14;99955.66;5075896;28;20115;-57
2022/08/11 07:35:01;;;;;;;17.80;5.40;;;;;;;32.28;26.21;99960.31;5078855;28;20493;-57
2022/08/11 07:37:32;;;;;;;24.73;5.35;;;;;;;32.61;25.30;99951.34;5078745;28;20234;-57
2022/08/11 07:39:57;;;;;;;15.73;4.82;;;;;;;31.29;27.35;99947.00;5062540;28;20037;-56
2022/08/11 07:42:27;;;;;;;16.88;4.78;;;;;;;31.41;27.59;99937.78;5077119;28;20054;-56
2022/08/11 07:53:04;;;;;;;15.75;5.40;;;;;;;30.60;28.24;99945.84;5077942;28;20031;-56
2022/08/11 07:55:30;;;;;;;15.88;5.13;;;;;;;31.97;26.34;99948.31;5071239;28;20024;-56
2022/08/11 08:19:55;;;;;;;14.95;5.25;;;;;;;30.48;28.40;99952.31;5078015;28;20505;-57
2022/08/11 08:22:20;;;;;;;17.38;5.65;;;;;;;30.73;28.52;99958.44;5070321;28;20036;-57
2022/08/11 08:24:46;;;;;;;11.20;5.30;;;;;;;29.46;29.58;99956.38;5075697;28;20025;-57
2022/08/11 08:27:13;;;;;;;12.07;5.50;;;;;;;29.29;30.20;99959.44;5072150;28;20029;-56
2022/08/11 08:32:22;;;;;;;10.07;4.68;;;;;;;28.04;31.50;99956.28;5058348;28;20055;-56
2022/08/11 08:34:51;;;;;;;16.23;5.30;;;;;;;28.72;30.86;99955.75;5071453;28;20463;-58
2022/08/11 08:37:17;;;;;;;9.30;4.70;;;;;;;28.56;30.94;99952.88;5071735;28;20509;-57
2022/08/11 08:39:44;;;;;;;15.65;4.93;;;;;;;28.77;30.74;99957.47;5070242;28;20385;-56
2022/08/11 08:42:10;;;;;;;9.52;4.68;;;;;;;29.36;30.21;99954.13;5071740;28;20029;-56
2022/08/11 08:44:39;;;;;;;12.10;4.88;;;;;;;28.92;30.84;99948.47;5071381;28;20501;-56
2022/08/11 08:47:05;;;;;;;17.85;5.07;;;;;;;28.51;31.00;99944.84;5054120;28;20063;-55
2022/08/11 08:49:35;;;;;;;9.82;4.78;;;;;;;29.31;30.01;99940.56;5069692;28;20411;-56
2022/08/11 08:52:02;;;;;;;12.10;4.40;;;;;;;29.50;29.17;99945.41;5070312;28;20024;-56
2022/08/11 08:54:35;;;;;;;8.43;4.40;;;;;;;29.55;30.08;99947.91;5074765;28;20064;-56
2022/08/11 08:57:04;;;;;;;11.15;4.30;;;;;;;28.48;31.39;99951.06;5059103;28;20082;-56
2022/08/11 08:59:29;;;;;;;10.10;4.38;;;;;;;28.06;31.00;99939.41;5073830;28;20028;-56
2022/08/11 09:01:57;;;;;;;11.80;4.97;;;;;;;29.08;30.37;99942.25;5074196;28;20027;-57
2022/08/11 09:04:23;;;;;;;9.68;4.32;;;;;;;28.86;30.15;99951.81;5074305;28;20040;-56
2022/08/11 09:06:49;;;;;;;13.20;5.05;;;;;;;27.87;31.03;99948.22;5057546;28;20060;-56
2022/08/11 09:09:14;;;;;;;8.98;4.82;;;;;;;28.26;31.03;99954.25;5074378;28;20032;-57
2022/08/11 09:11:50;;;;;;;9.95;4.78;;;;;;;29.54;30.03;99945.53;5074011;28;20371;-57
2022/08/11 09:14:16;;;;;;;10.80;4.78;;;;;;;30.00;29.41;99940.44;5074042;28;20029;-57
2022/08/11 09:16:43;;;;;;;10.57;4.72;;;;;;;31.45;27.35;99941.41;5073978;28;20062;-57
2022/08/11 09:19:08;;;;;;;8.57;4.38;;;;;;;29.92;28.31;99944.19;5073138;28;20074;-57
2022/08/11 09:21:34;;;;;;;8.25;4.18;;;;;;;28.77;29.02;99951.94;5073497;28;20025;-57
2022/08/11 09:27:02;;;;;;;7.55;4.45;;;;;;;29.22;29.22;99945.41;5074055;28;20059;-56
2022/08/11 09:29:29;;;;;;;10.95;4.75;;;;;;;30.06;28.30;99936.25;5059795;28;20024;-57
2022/08/11 09:31:55;;;;;;;9.77;4.60;;;;;;;30.42;28.81;99939.91;5073471;28;20062;-56
2022/08/11 09:34:20;;;;;;;7.53;4.20;;;;;;;29.06;28.69;99941.81;5073063;28;20568;-56
2022/08/11 09:42:14;;;;;;;11.85;4.78;;;;;;;28.14;29.81;99944.81;5084912;28;20035;-56
2022/08/11 09:44:48;;;;;;;12.85;4.63;;;;;;;27.50;30.65;99934.31;5073714;28;20028;-58
2022/08/11 09:47:17;;;;;;;17.27;5.20;;;;;;;27.50;30.98;99924.09;5058148;28;20028;-56
2022/08/11 09:49:43;;;;;;;6.07;4.50;;;;;;;28.92;29.23;99925.59;5072571;28;20459;-57
2022/08/11 09:52:09;;;;;;;8.80;4.32;;;;;;;28.64;29.92;99933.81;5074333;28;20090;-56
2022/08/11 09:54:35;;;;;;;6.10;4.63;;;;;;;28.54;29.35;99927.63;5072905;28;20032;-57
2022/08/11 09:59:45;;;;;;;12.73;5.10;;;;;;;28.68;28.67;99920.91;5076147;28;20062;-56
2022/08/11 10:02:10;;;;;;;8.57;4.80;;;;;;;28.97;27.72;99925.34;5072937;28;20021;-56
2022/08/11 10:04:45;;;;;;;15.98;4.70;;;;;;;29.60;27.62;99911.75;5073193;28;20048;-56
2022/08/11 10:07:15;;;;;;;11.90;5.00;;;;;;;28.79;28.29;99913.78;5072186;28;20028;-56
2022/08/11 10:09:47;;;;;;;9.27;4.63;;;;;;;29.74;27.59;99911.38;5079188;28;20020;-56
2022/08/11 10:12:25;;;;;;;8.48;4.90;;;;;;;28.47;27.97;99921.88;5074031;28;20036;-57
2022/08/11 10:18:40;;;;;;;10.35;5.20;;;;;;;27.73;28.94;99912.69;5062807;28;20439;-55
2022/08/11 10:20:29;;;;;;;11.05;5.00;;;;;;;28.23;28.19;99905.31;5075116;28;20553;-56
2022/08/11 10:28:22;;;;;;;9.77;4.95;;;;;;;29.27;28.16;99909.28;5058710;28;20490;-56
2022/08/11 10:36:17;;;;;;;6.70;4.50;;;;;;;29.51;26.85;99902.06;5059604;28;20113;-57
2022/08/11 10:38:44;;;;;;;10.07;4.75;;;;;;;28.14;28.04;99917.25;5072014;28;20544;-56
2022/08/11 10:43:54;;;;;;;13.75;5.47;;;;;;;28.79;27.64;99895.28;5072197;28;20505;-56
2022/08/11 10:49:03;;;;;;;9.55;4.60;;;;;;;28.52;27.76;99891.31;5071819;28;20116;-58
2022/08/11 10:59:42;;;;;;;20.60;5.50;;;;;;;28.98;28.09;99880.88;5072911;28;20032;-57
2022/08/11 11:02:12;;;;;;;7.85;4.80;;;;;;;28.62;28.57;99883.72;5071874;28;20016;-56
2022/08/11 11:05:00;;;;;;;8.05;4.85;;;;;;;28.22;29.30;99870.66;5054828;28;20040;-57
2022/08/11 11:07:37;;;;;;;8.57;5.10;;;;;;;28.53;28.88;99859.84;5072803;28;20032;-56
2022/08/11 11:10:04;;;;;;;13.45;5.72;;;;;;;28.71;28.91;99854.06;5071550;28;20021;-56
2022/08/11 11:18:10;;;;;;;8.23;4.97;;;;;;;28.12;29.30;99847.91;5071061;28;20094;-56
2022/08/11 11:20:44;;;;;;;13.80;5.18;;;;;;;29.26;28.94;99840.66;5072149;28;20034;-56
2022/08/11 11:23:12;;;;;;;10.63;4.72;;;;;;;28.69;28.53;99845.31;5072657;28;20027;-56
2022/08/11 11:26:05;;;;;;;7.80;4.45;;;;;;;28.79;28.58;99844.84;5077714;28;20741;-56
2022/08/11 11:28:36;;;;;;;7.82;4.60;;;;;;;28.59;28.56;99847.41;5071268;28;20535;-57
2022/08/11 11:31:29;;;;;;;7.68;4.53;;;;;;;29.44;28.21;99828.09;5072257;28;20490;-57
2022/08/11 11:34:32;;;;;;;7.93;4.40;;;;;;;29.42;28.05;99827.66;5071802;28;20475;-56
2022/08/11 11:36:57;;;;;;;8.23;4.82;;;;;;;29.13;27.96;99815.03;5070481;28;20567;-57
2022/08/11 11:39:24;;;;;;;16.85;4.63;;;;;;;29.32;28.07;99817.94;5071163;28;20037;-56
2022/08/11 11:41:51;;;;;;;8.18;4.07;;;;;;;29.26;27.85;99824.88;5071113;28;20486;-56
2022/08/11 11:44:17;;;;;;;8.15;4.40;;;;;;;29.21;27.98;99811.34;5072143;28;20040;-57
2022/08/11 11:46:44;;;;;;;8.65;4.50;;;;;;;28.96;28.31;99805.91;5070904;28;20055;-55
2022/08/11 11:49:09;;;;;;;7.18;4.40;;;;;;;29.01;27.86;99818.66;5072203;28;20496;-57
2022/08/11 11:51:36;;;;;;;10.95;5.88;;;;;;;28.87;28.40;99813.53;5054526;28;20020;-57
2022/08/11 11:54:03;;;;;;;9.02;4.55;;;;;;;29.12;27.79;99802.41;5071126;28;20025;-56
2022/08/11 11:56:29;;;;;;;9.80;4.45;;;;;;;29.19;27.46;99802.59;5070891;28;20063;-56
2022/08/11 12:01:38;;;;;;;8.25;4.68;;;;;;;29.36;27.52;99785.72;5057485;28;20035;-55
2022/08/11 12:04:05;;;;;;;7.43;4.50;;;;;;;28.92;27.72;99804.22;5071103;28;20024;-56
2022/08/11 12:06:31;;;;;;;7.18;4.82;;;;;;;28.90;27.67;99785.22;5070866;28;20478;-54
2022/08/11 12:08:56;;;;;;;10.30;4.47;;;;;;;29.16;27.52;99793.06;5053822;28;20035;-55
2022/08/11 12:14:07;;;;;;;6.22;4.15;;;;;;;29.18;27.45;99784.44;5065029;28;20039;-56
2022/08/11 12:16:34;;;;;;;13.13;4.60;;;;;;;29.06;27.56;99779.81;5077471;28;20115;-56
2022/08/11 12:19:00;;;;;;;8.90;4.57;;;;;;;28.62;27.47;99778.94;5062902;28;20036;-55
2022/08/11 12:21:26;;;;;;;10.70;4.60;;;;;;;29.09;27.11;99775.53;5078656;28;20624;-56
2022/08/11 12:29:04;;;;;;;9.13;4.40;;;;;;;28.79;27.54;99770.38;5070214;28;20040;-56
2022/08/11 12:31:31;;;;;;;14.63;4.32;;;;;;;28.59;28.21;99759.19;5081748;28;20030;-55
2022/08/11 12:34:06;;;;;;;12.35;4.03;;;;;;;29.27;27.68;99765.75;5075244;28;20063;-56
2022/08/11 12:36:36;;;;;;;7.47;3.97;;;;;;;29.59;26.87;99763.00;5046432;28;20020;-55
2022/08/11 12:39:08;;;;;;;6.93;4.60;;;;;;;29.58;27.23;99759.44;5070227;28;20153;-55
2022/08/11 12:47:06;;;;;;;8.30;4.50;;;;;;;28.64;27.62;99755.38;5065609;28;20044;-56
2022/08/11 12:52:25;;;;;;;11.18;4.72;;;;;;;29.28;27.68;99750.81;5079588;28;20031;-56
2022/08/11 12:54:56;;;;;;;8.85;4.13;;;;;;;28.99;27.31;99755.53;5075426;28;20020;-56
2022/08/11 13:05:45;;;;;;;12.30;4.47;;;;;;;29.22;27.62;99727.38;5079057;28;20060;-57
2022/08/11 13:08:10;;;;;;;7.50;4.35;;;;;;;29.38;27.20;99722.66;5073970;28;20056;-56
2022/08/11 13:13:19;;;;;;;17.00;4.47;;;;;;;29.65;27.45;99714.59;5075009;28;20102;-56
2022/08/11 13:15:46;;;;;;;8.45;4.07;;;;;;;29.25;27.33;99729.41;5057301;28;20036;-56
2022/08/11 13:18:14;;;;;;;11.10;4.50;;;;;;;29.28;27.49;99725.13;5073186;28;20025;-55
2022/08/11 13:20:39;;;;;;;9.00;4.45;;;;;;;29.08;27.76;99730.59;5057479;28;20032;-56
2022/08/11 13:23:05;;;;;;;10.82;4.65;;;;;;;28.93;28.70;99717.50;5074936;28;20520;-56
2022/08/11 13:25:31;;;;;;;11.07;5.00;;;;;;;29.03;28.10;99723.34;5057021;28;20032;-57
2022/08/11 13:27:57;;;;;;;11.75;4.55;;;;;;;29.31;28.17;99722.50;5074621;28;20434;-56
2022/08/11 13:33:12;;;;;;;10.15;4.50;;;;;;;29.85;27.83;99710.78;5074171;28;20043;-56
2022/08/11 13:35:37;;;;;;;8.05;4.68;;;;;;;29.58;26.91;99703.38;5073338;28;20029;-56
2022/08/11 13:38:03;;;;;;;22.85;5.05;;;;;;;29.56;27.88;99705.72;5073566;28;20517;-56
2022/08/11 13:40:28;;;;;;;7.10;4.38;;;;;;;29.75;27.26;99727.09;5074613;28;20475;-56
2022/08/11 13:42:54;;;;;;;8.45;4.35;;;;;;;29.56;27.67;99706.53;5072701;28;20024;-56
2022/08/11 13:45:21;;;;;;;8.60;4.57;;;;;;;29.60;27.98;99714.88;5074011;28;20039;-56
2022/08/11 13:47:48;;;;;;;6.15;4.50;;;;;;;29.21;28.49;99711.97;5095389;28;20107;-56
2022/08/11 13:50:14;;;;;;;9.45;4.70;;;;;;;29.29;28.56;99713.75;5074473;28;20115;-56
2022/08/11 13:52:39;;;;;;;9.77;4.70;;;;;;;29.15;28.18;99713.38;5074679;28;20532;-56
2022/08/11 13:55:10;;;;;;;6.88;4.70;;;;;;;29.40;28.50;99709.28;5077178;28;20111;-56
2022/08/11 13:57:36;;;;;;;8.45;4.30;;;;;;;29.34;27.78;99696.91;5058347;28;20051;-56
2022/08/11 14:00:09;;;;;;;12.30;4.32;;;;;;;29.44;27.85;99701.91;5073857;28;20453;-56
2022/08/11 14:02:37;;;;;;;12.02;4.63;;;;;;;29.59;27.89;99702.25;5074981;28;20020;-56
2022/08/11 14:05:12;;;;;;;10.27;4.50;;;;;;;29.39;28.17;99693.09;5072605;28;20670;-56
2022/08/11 14:07:38;;;;;;;9.93;5.03;;;;;;;29.20;27.94;99688.28;5079972;28;20028;-55
2022/08/11 14:10:05;;;;;;;7.60;4.35;;;;;;;29.75;27.75;99675.41;5072880;28;20082;-55
2022/08/11 14:15:23;;;;;;;10.60;4.68;;;;;;;29.73;27.85;99666.69;5074498;28;20036;-55
2022/08/11 14:17:55;;;;;;;7.07;4.18;;;;;;;29.85;27.63;99661.06;5063326;28;20386;-55
2022/08/11 14:20:21;;;;;;;7.63;4.00;;;;;;;29.75;27.54;99658.81;5070222;28;20020;-55
2022/08/11 14:22:46;;;;;;;7.20;4.45;;;;;;;29.63;28.05;99656.16;5074722;28;20032;-56
2022/08/11 14:25:16;;;;;;;7.07;4.40;;;;;;;29.76;28.31;99654.94;5072125;28;20044;-55
2022/08/11 14:27:48;;;;;;;11.63;4.95;;;;;;;29.69;27.97;99654.75;5071955;28;20043;-56
2022/08/11 14:30:54;;;;;;;8.80;4.53;;;;;;;29.87;27.77;99653.19;5076630;28;21103;-57
2022/08/11 14:33:00;;;;;;;8.30;4.60;;;;;;;29.78;27.69;99647.09;5073974;28;20045;-56
2022/08/11 14:35:26;;;;;;;7.38;4.35;;;;;;;28.99;28.45;99645.19;5072434;28;20051;-56
2022/08/11 14:37:52;;;;;;;7.80;4.53;;;;;;;29.33;28.16;99642.88;5083619;28;20463;-55
2022/08/11 14:48:29;;;;;;;11.57;4.50;;;;;;;29.26;28.05;99637.19;5083675;28;20031;-56
2022/08/11 14:50:55;;;;;;;8.25;4.53;;;;;;;30.11;26.89;99637.50;5075310;28;20032;-55
2022/08/11 14:53:22;;;;;;;6.75;4.30;;;;;;;30.11;27.20;99643.03;5075265;28;20107;-56
2022/08/11 14:58:32;;;;;;;8.75;4.53;;;;;;;29.72;27.74;99634.69;5071966;28;20546;-56
2022/08/11 15:00:59;;;;;;;8.57;4.72;;;;;;;29.85;28.14;99633.44;5074184;28;20032;-56
2022/08/11 15:03:25;;;;;;;10.70;4.47;;;;;;;29.51;27.75;99636.97;5077924;28;20502;-56
2022/08/11 15:05:52;;;;;;;6.82;4.43;;;;;;;29.44;28.28;99627.34;5072276;28;20048;-55
2022/08/11 15:08:18;;;;;;;5.85;4.15;;;;;;;29.26;28.08;99631.66;5085007;28;20033;-56
2022/08/11 15:10:45;;;;;;;8.73;4.28;;;;;;;29.78;27.46;99619.47;5073937;28;20020;-55
2022/08/11 15:13:10;;;;;;;14.77;5.03;;;;;;;29.49;28.04;99617.19;5062611;28;20038;-56
2022/08/11 15:18:22;;;;;;;10.18;4.47;;;;;;;30.37;28.20;99611.16;5077968;28;20031;-57
2022/08/11 15:37:36;;;;;;;12.95;4.22;;;;;;;29.93;26.63;99597.63;5060305;28;20108;-54
2022/08/11 15:46:06;;;;;;;6.40;3.83;;;;;;;29.93;26.15;99594.88;5073786;28;20088;-56
2022/08/11 15:48:32;;;;;;;8.93;4.32;;;;;;;29.93;26.64;99592.09;5075171;28;20027;-55
2022/08/11 15:51:02;;;;;;;7.03;3.95;;;;;;;29.95;26.11;99595.31;5083801;28;20493;-54
2022/08/11 15:53:33;;;;;;;11.27;4.22;;;;;;;29.99;26.67;99596.19;5057638;28;20028;-56
2022/08/11 15:55:59;;;;;;;9.35;3.90;;;;;;;29.80;26.33;99586.72;5076407;28;20031;-56
2022/08/11 16:04:11;;;;;;;10.00;4.28;;;;;;;30.05;26.11;99594.72;5062313;28;20437;-56
2022/08/11 16:06:42;;;;;;;8.55;4.13;;;;;;;29.74;26.90;99581.88;5069914;28;20051;-57
2022/08/11 16:09:07;;;;;;;14.15;4.53;;;;;;;29.87;25.96;99594.38;5077656;28;20467;-56
2022/08/11 16:11:33;;;;;;;7.60;4.15;;;;;;;29.80;26.33;99583.97;5079218;28;20055;-58
2022/08/11 16:16:46;;;;;;;7.85;4.00;;;;;;;29.93;25.93;99570.00;5076805;28;20039;-57
2022/08/11 16:19:12;;;;;;;8.00;4.00;;;;;;;29.86;26.52;99565.94;5076720;28;20112;-57
2022/08/11 16:21:42;;;;;;;7.55;4.25;;;;;;;30.10;25.85;99578.66;5067216;28;20378;-57
2022/08/11 16:24:09;;;;;;;8.90;4.20;;;;;;;29.69;25.95;99566.38;5058052;28;20090;-57
2022/08/11 16:26:37;;;;;;;11.27;4.43;;;;;;;30.01;26.27;99571.75;5083348;28;20055;-57